createdAt,value
2022-10-24T00:01:09.281Z,100.00
2022-10-24T00:03:37.293Z,100.00
2022-10-24T00:06:08.021Z,100.00
2022-10-24T00:08:36.544Z,100.00
2022-10-24T00:11:10.745Z,100.00
2022-10-24T00:13:39.348Z,100.00
2022-10-24T00:16:09.392Z,100.00
2022-10-24T00:18:37.371Z,100.00
2022-10-24T00:21:06.205Z,100.00
2022-10-24T00:23:34.424Z,100.00
2022-10-24T00:26:04.278Z,100.00
2022-10-24T00:28:33.281Z,100.00
2022-10-24T00:31:01.815Z,100.00
2022-10-24T00:33:31.119Z,100.00
2022-10-24T00:35:59.048Z,100.00
2022-10-24T00:38:27.048Z,100.00
2022-10-24T00:40:54.964Z,100.00
2022-10-24T00:43:25.425Z,100.00
2022-10-24T00:45:56.105Z,100.00
2022-10-24T00:48:28.403Z,100.00
2022-10-24T00:51:02.921Z,100.00
2022-10-24T00:53:33.067Z,100.00
2022-10-24T00:56:03.457Z,100.00
2022-10-24T00:58:34.254Z,100.00
2022-10-24T01:01:02.809Z,100.00
2022-10-24T01:03:30.883Z,100.00
2022-10-24T01:06:19.465Z,100.00
2022-10-24T01:08:55.342Z,100.00
2022-10-24T01:11:39.028Z,100.00
2022-10-24T01:14:14.257Z,100.00
2022-10-24T01:16:50.226Z,100.00
2022-10-24T01:19:46.489Z,100.00
2022-10-24T01:22:21.114Z,100.00
2022-10-24T01:25:05.797Z,100.00
2022-10-24T01:27:58.299Z,100.00
2022-10-24T01:30:31.117Z,100.00
2022-10-24T01:33:04.785Z,100.00
2022-10-24T01:35:40.407Z,100.00
2022-10-24T01:38:18.013Z,100.00
2022-10-24T01:40:51.734Z,100.00
2022-10-24T01:43:24.535Z,100.00
2022-10-24T01:45:57.961Z,100.00
2022-10-24T01:48:27.345Z,100.00
2022-10-24T01:50:57.303Z,100.00
2022-10-24T01:53:28.914Z,100.00
2022-10-24T01:55:58.117Z,100.00
2022-10-24T01:58:27.477Z,100.00
2022-10-24T02:01:02.695Z,100.00
2022-10-24T02:03:37.753Z,100.00
2022-10-24T02:06:11.889Z,100.00
2022-10-24T02:08:44.683Z,100.00
2022-10-24T02:11:13.569Z,100.00
2022-10-24T02:13:49.030Z,100.00
2022-10-24T02:16:20.604Z,100.00
2022-10-24T02:18:50.364Z,100.00
2022-10-24T02:21:25.649Z,100.00
2022-10-24T02:23:59.695Z,100.00
2022-10-24T02:26:32.883Z,100.00
2022-10-24T02:29:05.920Z,100.00
2022-10-24T02:31:41.196Z,100.00
2022-10-24T02:36:42.527Z,100.00
2022-10-24T02:39:12.502Z,100.00
2022-10-24T02:41:43.747Z,100.00
2022-10-24T02:44:14.605Z,100.00
2022-10-24T02:46:46.650Z,100.00
2022-10-24T02:49:15.201Z,100.00
2022-10-24T02:51:46.015Z,100.00
2022-10-24T02:54:14.704Z,100.00
2022-10-24T02:56:46.745Z,100.00
2022-10-24T02:59:14.648Z,100.00
2022-10-24T03:01:44.051Z,100.00
2022-10-24T03:04:12.104Z,100.00
2022-10-24T03:06:40.185Z,100.00
2022-10-24T03:09:08.100Z,100.00
2022-10-24T03:11:36.134Z,100.00
2022-10-24T03:14:04.507Z,100.00
2022-10-24T03:16:32.458Z,100.00
2022-10-24T03:19:01.752Z,100.00
2022-10-24T03:21:29.806Z,100.00
2022-10-24T03:23:57.777Z,100.00
2022-10-24T03:26:25.801Z,100.00
2022-10-24T03:28:53.690Z,100.00
2022-10-24T03:31:21.615Z,100.00
2022-10-24T03:33:49.504Z,100.00
2022-10-24T03:36:19.292Z,100.00
2022-10-24T03:38:47.219Z,100.00
2022-10-24T03:41:15.159Z,100.00
2022-10-24T03:43:43.131Z,100.00
2022-10-24T03:46:11.124Z,100.00
2022-10-24T03:48:39.080Z,100.00
2022-10-24T03:51:07.257Z,100.00
2022-10-24T03:53:36.568Z,100.00
2022-10-24T03:56:05.248Z,100.00
2022-10-24T03:58:33.328Z,100.00
2022-10-24T04:01:01.743Z,100.00
2022-10-24T04:03:30.162Z,100.00
2022-10-24T04:05:58.156Z,100.00
2022-10-24T04:08:26.118Z,100.00
2022-10-24T04:10:55.640Z,100.00
2022-10-24T04:13:23.670Z,100.00
2022-10-24T04:15:51.843Z,100.00
2022-10-24T04:18:19.925Z,100.00
2022-10-24T04:20:47.882Z,100.00
2022-10-24T04:23:15.955Z,100.00
2022-10-24T04:25:44.683Z,100.00
2022-10-24T04:28:14.085Z,100.00
2022-10-24T04:33:14.989Z,100.00
2022-10-24T04:35:48.774Z,100.00
2022-10-24T04:38:16.859Z,100.00
2022-10-24T04:40:47.218Z,100.00
2022-10-24T04:43:16.850Z,100.00
2022-10-24T04:45:44.899Z,100.00
2022-10-24T04:48:13.267Z,100.00
2022-10-24T04:50:41.884Z,100.00
2022-10-24T04:53:10.324Z,100.00
2022-10-24T04:55:38.513Z,100.00
2022-10-24T04:58:06.975Z,100.00
2022-10-24T05:00:36.385Z,100.00
2022-10-24T05:03:06.290Z,100.00
2022-10-24T05:05:34.269Z,100.00
2022-10-24T05:08:02.239Z,100.00
2022-10-24T05:10:30.200Z,100.00
2022-10-24T05:12:58.351Z,100.00
2022-10-24T05:15:26.235Z,100.00
2022-10-24T05:17:55.616Z,100.00
2022-10-24T05:20:23.507Z,100.00
2022-10-24T05:22:51.527Z,100.00
2022-10-24T05:25:19.701Z,100.00
2022-10-24T05:27:47.698Z,100.00
2022-10-24T05:30:16.141Z,100.00
2022-10-24T05:32:44.600Z,100.00
2022-10-24T05:35:14.039Z,100.00
2022-10-24T05:37:44.040Z,100.00
2022-10-24T05:40:14.105Z,100.00
2022-10-24T05:42:42.598Z,100.00
2022-10-24T05:45:12.541Z,100.00
2022-10-24T05:47:40.414Z,100.00
2022-10-24T05:50:09.652Z,100.00
2022-10-24T05:52:46.131Z,100.00
2022-10-24T05:55:17.987Z,100.00
2022-10-24T05:57:47.254Z,100.00
2022-10-24T06:00:17.655Z,100.00
2022-10-24T06:05:20.001Z,100.00
2022-10-24T06:07:49.542Z,100.00
2022-10-24T06:10:17.662Z,100.00
2022-10-24T06:12:45.718Z,100.00
2022-10-24T06:15:14.751Z,100.00
2022-10-24T06:17:42.625Z,100.00
2022-10-24T06:20:11.250Z,100.00
2022-10-24T06:22:39.776Z,100.00
2022-10-24T06:25:09.972Z,100.00
2022-10-24T06:27:37.956Z,100.00
2022-10-24T06:30:07.517Z,100.00
2022-10-24T06:32:35.898Z,100.00
2022-10-24T06:35:04.789Z,100.00
2022-10-24T06:37:33.689Z,100.00
2022-10-24T06:40:01.608Z,100.00
2022-10-24T06:42:31.605Z,100.00
2022-10-24T06:47:28.343Z,100.00
2022-10-24T06:49:56.257Z,100.00
2022-10-24T06:52:24.263Z,100.00
2022-10-24T06:54:52.160Z,100.00
2022-10-24T06:57:20.103Z,100.00
2022-10-24T06:59:49.394Z,100.00
2022-10-24T07:02:18.432Z,100.00
2022-10-24T07:04:46.424Z,100.00
2022-10-24T07:07:16.591Z,100.00
2022-10-24T07:09:44.627Z,100.00
2022-10-24T07:12:12.831Z,100.00
2022-10-24T07:14:40.833Z,100.00
2022-10-24T07:17:10.138Z,100.00
2022-10-24T07:19:38.033Z,100.00
2022-10-24T07:22:06.281Z,100.00
2022-10-24T07:24:34.355Z,100.00
2022-10-24T07:27:02.590Z,100.00
2022-10-24T07:29:30.859Z,100.00
2022-10-24T07:31:59.587Z,100.00
2022-10-24T07:34:29.061Z,100.00
2022-10-24T07:36:56.989Z,100.00
2022-10-24T07:39:24.891Z,100.00
2022-10-24T07:41:52.864Z,100.00
2022-10-24T07:44:20.731Z,100.00
2022-10-24T07:46:48.698Z,100.00
2022-10-24T07:49:16.855Z,100.00
2022-10-24T07:51:46.136Z,100.00
2022-10-24T07:54:14.074Z,100.00
2022-10-24T07:56:42.089Z,100.00
2022-10-24T07:59:29.813Z,100.00
2022-10-24T08:01:57.924Z,100.00
2022-10-24T08:04:25.869Z,100.00
2022-10-24T08:06:55.156Z,100.00
2022-10-24T08:09:23.178Z,100.00
2022-10-24T08:11:51.192Z,100.00
2022-10-24T08:14:19.082Z,100.00
2022-10-24T08:16:47.097Z,100.00
2022-10-24T08:19:15.203Z,100.00
2022-10-24T08:21:43.210Z,100.00
2022-10-24T08:24:12.617Z,100.00
2022-10-24T08:26:40.575Z,100.00
2022-10-24T08:29:11.472Z,100.00
2022-10-24T08:31:39.565Z,100.00
2022-10-24T08:34:08.069Z,100.00
2022-10-24T08:36:37.073Z,100.00
2022-10-24T08:39:05.491Z,100.00
2022-10-24T08:41:38.013Z,100.00
2022-10-24T08:44:16.654Z,100.00
2022-10-24T08:46:50.405Z,100.00
2022-10-24T08:49:30.199Z,100.00
2022-10-24T08:52:01.742Z,100.00
2022-10-24T08:54:36.884Z,100.00
2022-10-24T08:57:08.616Z,100.00
2022-10-24T08:59:37.884Z,100.00
2022-10-24T09:02:16.672Z,100.00
2022-10-24T09:04:51.340Z,100.00
2022-10-24T09:07:21.903Z,100.00
2022-10-24T09:09:52.272Z,100.00
2022-10-24T09:12:23.291Z,100.00
2022-10-24T09:14:59.290Z,100.00
2022-10-24T09:17:32.413Z,100.00
2022-10-24T09:20:05.343Z,100.00
2022-10-24T09:22:39.499Z,100.00
2022-10-24T09:25:16.203Z,100.00
2022-10-24T09:27:46.425Z,100.00
2022-10-24T09:30:19.093Z,100.00
2022-10-24T09:32:48.022Z,100.00
2022-10-24T09:35:20.312Z,100.00
2022-10-24T09:37:52.843Z,100.00
2022-10-24T09:40:24.556Z,99.29
2022-10-24T09:42:59.864Z,97.42
2022-10-24T09:45:41.225Z,94.21
2022-10-24T09:48:21.206Z,93.59
2022-10-24T09:50:53.898Z,92.09
2022-10-24T09:53:28.240Z,90.30
2022-10-24T09:55:58.978Z,87.18
2022-10-24T09:58:33.728Z,86.55
2022-10-24T10:01:04.956Z,89.08
2022-10-24T10:03:34.136Z,89.06
2022-10-24T10:06:06.237Z,85.96
2022-10-24T10:08:36.749Z,83.62
2022-10-24T10:11:09.132Z,83.10
2022-10-24T10:13:50.013Z,82.07
2022-10-24T10:16:24.888Z,81.05
2022-10-24T10:19:02.176Z,80.60
2022-10-24T10:21:54.545Z,79.99
2022-10-24T10:24:27.506Z,77.99
2022-10-24T10:26:55.475Z,76.91
2022-10-24T10:29:25.534Z,76.15
2022-10-24T10:31:59.330Z,75.24
2022-10-24T10:34:35.777Z,76.06
2022-10-24T10:37:26.528Z,75.94
2022-10-24T10:40:19.531Z,74.46
2022-10-24T10:43:01.389Z,71.57
2022-10-24T10:45:37.291Z,69.16
2022-10-24T10:48:22.118Z,69.00
2022-10-24T10:50:56.642Z,68.28
2022-10-24T10:53:38.133Z,68.95
2022-10-24T10:56:19.644Z,66.51
2022-10-24T10:58:57.693Z,67.23
2022-10-24T11:01:34.904Z,67.45
2022-10-24T11:04:14.089Z,67.74
2022-10-24T11:06:47.957Z,66.11
2022-10-24T11:09:38.151Z,65.22
2022-10-24T11:12:13.328Z,65.29
2022-10-24T11:14:44.173Z,64.93
2022-10-24T11:17:17.847Z,63.30
2022-10-24T11:19:55.952Z,62.84
2022-10-24T11:22:28.932Z,61.82
2022-10-24T11:25:02.735Z,62.36
2022-10-24T11:27:38.406Z,61.70
2022-10-24T11:30:15.663Z,61.68
2022-10-24T11:32:51.261Z,60.83
2022-10-24T11:35:29.014Z,60.50
2022-10-24T11:38:03.100Z,59.58
2022-10-24T11:40:31.731Z,60.54
2022-10-24T11:43:12.001Z,59.84
2022-10-24T11:45:46.879Z,59.36
2022-10-24T11:48:22.898Z,59.30
2022-10-24T11:50:55.343Z,58.71
2022-10-24T11:53:45.944Z,58.79
2022-10-24T11:56:21.318Z,58.82
2022-10-24T11:58:58.660Z,58.22
2022-10-24T12:02:06.866Z,56.95
2022-10-24T12:05:00.402Z,56.21
2022-10-24T12:07:58.473Z,55.73
2022-10-24T12:10:47.233Z,54.96
2022-10-24T12:13:50.745Z,54.07
2022-10-24T12:16:29.998Z,54.17
2022-10-24T12:19:00.762Z,54.89
2022-10-24T12:21:39.531Z,55.28
2022-10-24T12:24:20.492Z,55.54
2022-10-24T12:26:56.657Z,55.34
2022-10-24T12:29:26.756Z,54.99
2022-10-24T12:31:55.241Z,55.64
2022-10-24T12:34:48.816Z,54.11
2022-10-24T12:37:46.625Z,54.06
2022-10-24T12:40:52.738Z,53.74
2022-10-24T12:43:33.425Z,52.81
2022-10-24T12:46:09.401Z,53.60
2022-10-24T12:48:43.174Z,53.44
2022-10-24T12:51:28.653Z,53.04
2022-10-24T12:54:19.426Z,53.17
2022-10-24T12:57:27.065Z,53.63
2022-10-24T12:59:57.729Z,53.90
2022-10-24T13:02:54.112Z,53.89
2022-10-24T13:05:48.833Z,52.85
2022-10-24T13:08:27.935Z,52.42
2022-10-24T13:11:14.263Z,52.68
2022-10-24T13:14:00.035Z,52.23
2022-10-24T13:16:41.445Z,51.41
2022-10-24T13:19:17.040Z,52.53
2022-10-24T13:21:48.885Z,52.53
2022-10-24T13:24:35.035Z,53.12
2022-10-24T13:27:31.273Z,52.39
2022-10-24T13:30:21.650Z,52.13
2022-10-24T13:32:49.563Z,52.16
2022-10-24T13:35:32.293Z,51.92
2022-10-24T13:38:04.786Z,51.26
2022-10-24T13:40:36.674Z,51.49
2022-10-24T13:43:15.426Z,52.14
2022-10-24T13:45:48.565Z,51.29
2022-10-24T13:48:20.799Z,51.43
2022-10-24T13:50:52.917Z,51.91
2022-10-24T13:53:30.281Z,51.27
2022-10-24T13:56:02.041Z,51.38
2022-10-24T13:58:41.034Z,51.15
2022-10-24T14:01:19.254Z,51.19
2022-10-24T14:03:49.597Z,51.24
2022-10-24T14:06:17.898Z,51.73
2022-10-24T14:09:01.420Z,52.08
2022-10-24T14:11:32.819Z,53.18
2022-10-24T14:14:07.313Z,53.49
2022-10-24T14:16:37.603Z,54.02
2022-10-24T14:19:16.791Z,55.12
2022-10-24T14:21:47.066Z,56.55
2022-10-24T14:24:17.065Z,58.25
2022-10-24T14:26:46.556Z,60.32
2022-10-24T14:29:23.540Z,60.84
2022-10-24T14:31:57.685Z,62.73
2022-10-24T14:34:26.237Z,64.65
2022-10-24T14:36:55.944Z,65.96
2022-10-24T14:39:24.883Z,69.46
2022-10-24T14:41:54.732Z,72.76
2022-10-24T14:44:24.892Z,76.77
2022-10-24T14:47:03.773Z,80.49
2022-10-24T14:49:33.841Z,80.28
2022-10-24T14:52:09.465Z,81.95
2022-10-24T14:54:38.191Z,83.19
2022-10-24T14:57:10.357Z,85.04
2022-10-24T14:59:46.701Z,84.18
2022-10-24T15:02:21.720Z,84.89
2022-10-24T15:04:52.013Z,85.58
2022-10-24T15:07:30.749Z,86.03
2022-10-24T15:10:00.868Z,87.66
2022-10-24T15:12:34.262Z,91.10
2022-10-24T15:15:26.326Z,94.71
2022-10-24T15:18:00.183Z,98.31
2022-10-24T15:20:30.049Z,99.54
2022-10-24T15:22:59.942Z,100.00
2022-10-24T15:25:31.149Z,100.00
2022-10-24T15:28:00.385Z,100.00
2022-10-24T15:30:31.952Z,100.00
2022-10-24T15:33:02.273Z,100.00
2022-10-24T15:35:31.740Z,100.00
2022-10-24T15:38:03.912Z,100.00
2022-10-24T15:40:35.445Z,100.00
2022-10-24T15:43:03.481Z,100.00
2022-10-24T15:45:32.840Z,100.00
2022-10-24T15:48:00.741Z,100.00
2022-10-24T15:50:28.674Z,100.00
2022-10-24T15:52:58.774Z,100.00
2022-10-24T15:55:28.447Z,100.00
2022-10-24T15:57:59.799Z,100.00
2022-10-24T16:00:28.231Z,100.00
2022-10-24T16:03:01.651Z,100.00
2022-10-24T16:05:35.718Z,100.00
2022-10-24T16:08:03.883Z,100.00
2022-10-24T16:10:31.871Z,100.00
2022-10-24T16:12:59.838Z,100.00
2022-10-24T16:18:07.476Z,100.00
2022-10-24T16:20:35.908Z,100.00
2022-10-24T16:23:06.934Z,100.00
2022-10-24T16:25:37.597Z,100.00
2022-10-24T16:28:07.491Z,100.00
2022-10-24T16:30:37.424Z,100.00
2022-10-24T16:33:05.521Z,100.00
2022-10-24T16:35:39.191Z,100.00
2022-10-24T16:38:09.176Z,100.00
2022-10-24T16:43:16.488Z,100.00
2022-10-24T16:45:47.277Z,100.00
2022-10-24T16:48:15.422Z,100.00
2022-10-24T16:50:46.482Z,100.00
2022-10-24T16:53:18.340Z,100.00
2022-10-24T16:55:48.390Z,100.00
2022-10-24T16:58:16.861Z,100.00
2022-10-24T17:00:45.329Z,100.00
2022-10-24T17:03:13.796Z,100.00
2022-10-24T17:05:44.042Z,100.00
2022-10-24T17:08:17.346Z,100.00
2022-10-24T17:10:45.308Z,100.00
2022-10-24T17:13:13.366Z,100.00
2022-10-24T17:15:42.099Z,100.00
2022-10-24T17:18:10.123Z,100.00
2022-10-24T17:20:38.082Z,100.00
2022-10-24T17:23:06.769Z,100.00
2022-10-24T17:25:36.455Z,100.00
2022-10-24T17:28:04.546Z,100.00
2022-10-24T17:30:32.744Z,100.00
2022-10-24T17:33:01.548Z,100.00
2022-10-24T17:35:30.441Z,100.00
2022-10-24T17:38:08.331Z,100.00
2022-10-24T17:40:43.776Z,100.00
2022-10-24T17:43:19.298Z,100.00
2022-10-24T17:45:47.952Z,100.00
2022-10-24T17:48:16.457Z,100.00
2022-10-24T17:50:46.129Z,100.00
2022-10-24T17:53:16.417Z,100.00
2022-10-24T17:55:48.022Z,100.00
2022-10-24T17:58:17.817Z,100.00
2022-10-24T18:00:46.892Z,100.00
2022-10-24T18:03:15.010Z,100.00
2022-10-24T18:05:42.972Z,100.00
2022-10-24T18:08:12.379Z,100.00
2022-10-24T18:10:42.325Z,100.00
2022-10-24T18:13:12.885Z,100.00
2022-10-24T18:15:40.805Z,100.00
2022-10-24T18:18:10.965Z,100.00
2022-10-24T18:20:39.134Z,100.00
2022-10-24T18:23:08.323Z,100.00
2022-10-24T18:25:38.084Z,100.00
2022-10-24T18:28:06.493Z,100.00
2022-10-24T18:30:36.738Z,100.00
2022-10-24T18:33:04.967Z,100.00
2022-10-24T18:35:34.166Z,100.00
2022-10-24T18:38:02.174Z,100.00
2022-10-24T18:40:33.647Z,100.00
2022-10-24T18:43:05.419Z,100.00
2022-10-24T18:45:36.313Z,100.00
2022-10-24T18:48:05.060Z,100.00
2022-10-24T18:50:33.874Z,100.00
2022-10-24T18:53:06.119Z,100.00
2022-10-24T18:55:36.910Z,100.00
2022-10-24T18:58:11.603Z,100.00
2022-10-24T19:00:43.043Z,100.00
2022-10-24T19:03:21.940Z,100.00
2022-10-24T19:05:55.044Z,100.00
2022-10-24T19:08:25.303Z,100.00
2022-10-24T19:10:56.440Z,100.00
2022-10-24T19:13:25.129Z,100.00
2022-10-24T19:15:58.191Z,100.00
2022-10-24T19:18:28.493Z,100.00
2022-10-24T19:20:56.569Z,100.00
2022-10-24T19:23:24.870Z,100.00
2022-10-24T19:25:53.297Z,100.00
2022-10-24T19:28:23.253Z,100.00
2022-10-24T19:30:51.205Z,100.00
2022-10-24T19:33:24.992Z,100.00
2022-10-24T19:35:52.965Z,100.00
2022-10-24T19:38:21.565Z,100.00
2022-10-24T19:40:52.004Z,100.00
2022-10-24T19:43:20.535Z,100.00
2022-10-24T19:45:50.859Z,100.00
2022-10-24T19:48:32.653Z,100.00
2022-10-24T19:51:04.637Z,100.00
2022-10-24T19:53:35.515Z,100.00
2022-10-24T19:56:08.225Z,100.00
2022-10-24T19:58:37.566Z,100.00
2022-10-24T20:01:07.068Z,100.00
2022-10-24T20:03:38.732Z,100.00
2022-10-24T20:06:07.631Z,100.00
2022-10-24T20:08:36.141Z,100.00
2022-10-24T20:11:04.938Z,100.00
2022-10-24T20:13:33.914Z,100.00
2022-10-24T20:16:04.047Z,100.00
2022-10-24T20:18:33.535Z,100.00
2022-10-24T20:21:05.528Z,100.00
2022-10-24T20:23:33.554Z,100.00
2022-10-24T20:26:03.281Z,100.00
2022-10-24T20:28:34.579Z,100.00
2022-10-24T20:31:03.631Z,100.00
2022-10-24T20:33:31.906Z,100.00
2022-10-24T20:36:00.702Z,100.00
2022-10-24T20:38:30.415Z,100.00
2022-10-24T20:41:02.478Z,100.00
2022-10-24T20:43:31.637Z,100.00
2022-10-24T20:45:59.649Z,100.00
2022-10-24T20:48:27.574Z,100.00
2022-10-24T20:50:55.724Z,100.00
2022-10-24T20:53:23.966Z,100.00
2022-10-24T20:55:53.524Z,100.00
2022-10-24T20:58:21.733Z,100.00
2022-10-24T21:00:50.305Z,100.00
2022-10-24T21:03:18.237Z,100.00
2022-10-24T21:05:46.101Z,100.00
2022-10-24T21:08:14.013Z,100.00
2022-10-24T21:10:42.234Z,100.00
2022-10-24T21:13:11.804Z,100.00
2022-10-24T21:15:39.717Z,100.00
2022-10-24T21:18:07.676Z,100.00
2022-10-24T21:20:37.465Z,100.00
2022-10-24T21:23:05.443Z,100.00
2022-10-24T21:25:33.452Z,100.00
2022-10-24T21:28:01.461Z,100.00
2022-10-24T21:30:30.797Z,100.00
2022-10-24T21:32:58.852Z,100.00
2022-10-24T21:35:26.836Z,100.00
2022-10-24T21:37:55.331Z,100.00
2022-10-24T21:40:23.505Z,100.00
2022-10-24T21:42:51.426Z,100.00
2022-10-24T21:45:19.728Z,100.00
2022-10-24T21:47:49.114Z,100.00
2022-10-24T21:50:17.248Z,100.00
2022-10-24T21:52:45.405Z,100.00
2022-10-24T21:55:13.610Z,100.00
2022-10-24T21:57:42.680Z,100.00
2022-10-24T22:00:12.234Z,100.00
2022-10-24T22:02:40.632Z,100.00
2022-10-24T22:05:11.018Z,100.00
2022-10-24T22:07:38.933Z,100.00
2022-10-24T22:10:07.781Z,100.00
2022-10-24T22:12:35.697Z,100.00
2022-10-24T22:15:04.356Z,100.00
2022-10-24T22:17:32.319Z,100.00
2022-10-24T22:20:00.234Z,100.00
2022-10-24T22:22:29.530Z,100.00
2022-10-24T22:24:57.461Z,100.00
2022-10-24T22:27:25.412Z,100.00
2022-10-24T22:29:53.345Z,100.00
2022-10-24T22:32:21.662Z,100.00
2022-10-24T22:34:50.140Z,100.00
2022-10-24T22:37:25.769Z,100.00
2022-10-24T22:39:55.663Z,100.00
2022-10-24T22:42:24.308Z,100.00
2022-10-24T22:44:52.800Z,100.00
2022-10-24T22:47:44.596Z,100.00
2022-10-24T22:50:29.379Z,100.00
2022-10-24T22:52:57.802Z,100.00
2022-10-24T22:55:33.064Z,100.00
2022-10-24T22:58:01.590Z,100.00
2022-10-24T23:00:30.176Z,100.00
2022-10-24T23:03:07.207Z,100.00
2022-10-24T23:05:38.843Z,100.00
2022-10-24T23:08:10.697Z,100.00
2022-10-24T23:10:40.656Z,100.00
2022-10-24T23:13:09.453Z,100.00
2022-10-24T23:15:37.939Z,100.00
2022-10-24T23:18:06.450Z,100.00
2022-10-24T23:20:37.465Z,100.00
2022-10-24T23:23:17.010Z,100.00
2022-10-24T23:26:04.805Z,100.00
2022-10-24T23:28:41.340Z,100.00
2022-10-24T23:31:09.989Z,100.00
2022-10-24T23:33:38.240Z,100.00
2022-10-24T23:36:06.942Z,100.00
2022-10-24T23:38:35.624Z,100.00
2022-10-24T23:41:05.604Z,100.00
2022-10-24T23:43:34.089Z,100.00
2022-10-24T23:46:06.173Z,100.00
2022-10-24T23:48:49.698Z,100.00
2022-10-24T23:51:25.917Z,100.00
2022-10-24T23:53:56.233Z,100.00
2022-10-24T23:56:27.433Z,100.00
2022-10-24T23:58:58.522Z,100.00
